Bruce, Wisconsin
Current Conditions -  °F | °C
As of 7:55 PM on Monday 20 Oct 2014 (Local Time) from KRCX Reporting Station
Overcast Overcast  
Wind Chill: 49°   Ceiling: 3300
Heat Index: 49°   Visibility: 10mi
Dew Point: 41°   Wind: 3mph
Humidity: 75%   Direction: 330°NNW
Pressure: 30.06"   Gusts: NA
Location:  45.46°N, 91.27°W
Report Text: KRCX 210055Z AUTO 33003KT 10SM BKN033 OVC041 10/05 A3006 RMK AO2 T00950052
Loading
Personal Weather Stations






























Interactive Weather Map New forecast layout! Learn more

10-Day Weather Forecast

Advertisements
Track Severe Weather on mobile